sensor_id;sensor_type;location;lat;lon;timestamp;temperature;humidity
25250;DHT22;13201;51.148;13.738;2022-08-02T00:00:50;19.10;99.90
25250;DHT22;13201;51.148;13.738;2022-08-02T00:03:16;19.10;99.90
25250;DHT22;13201;51.148;13.738;2022-08-02T00:05:42;19.10;99.90
25250;DHT22;13201;51.148;13.738;2022-08-02T00:08:08;19.10;99.90
25250;DHT22;13201;51.148;13.738;2022-08-02T00:10:33;19.00;99.90
25250;DHT22;13201;51.148;13.738;2022-08-02T00:12:59;18.70;99.90
25250;DHT22;13201;51.148;13.738;2022-08-02T00:15:25;18.90;99.90
25250;DHT22;13201;51.148;13.738;2022-08-02T00:17:51;18.90;99.90
25250;DHT22;13201;51.148;13.738;2022-08-02T00:20:16;19.00;99.90
25250;DHT22;13201;51.148;13.738;2022-08-02T00:22:42;18.80;99.90
25250;DHT22;13201;51.148;13.738;2022-08-02T00:25:08;18.70;99.90
25250;DHT22;13201;51.148;13.738;2022-08-02T00:27:34;18.70;99.90
25250;DHT22;13201;51.148;13.738;2022-08-02T00:30:00;18.70;99.90
25250;DHT22;13201;51.148;13.738;2022-08-02T00:32:25;18.60;99.90
25250;DHT22;13201;51.148;13.738;2022-08-02T00:34:51;18.50;99.90
25250;DHT22;13201;51.148;13.738;2022-08-02T00:37:17;18.60;99.90
25250;DHT22;13201;51.148;13.738;2022-08-02T00:39:42;18.40;99.90
25250;DHT22;13201;51.148;13.738;2022-08-02T00:42:09;18.40;99.90
25250;DHT22;13201;51.148;13.738;2022-08-02T00:44:34;18.30;99.90
25250;DHT22;13201;51.148;13.738;2022-08-02T00:47:00;18.50;99.90
25250;DHT22;13201;51.148;13.738;2022-08-02T00:49:26;18.10;99.90
25250;DHT22;13201;51.148;13.738;2022-08-02T00:51:52;18.10;99.90
25250;DHT22;13201;51.148;13.738;2022-08-02T00:54:17;18.20;99.90
25250;DHT22;13201;51.148;13.738;2022-08-02T00:56:43;18.40;99.90
25250;DHT22;13201;51.148;13.738;2022-08-02T00:59:09;18.40;99.90
25250;DHT22;13201;51.148;13.738;2022-08-02T01:01:34;18.40;99.90
25250;DHT22;13201;51.148;13.738;2022-08-02T01:04:07;18.40;99.90
25250;DHT22;13201;51.148;13.738;2022-08-02T01:06:34;18.30;99.90
25250;DHT22;13201;51.148;13.738;2022-08-02T01:32:34;16.70;99.90
25250;DHT22;13201;51.148;13.738;2022-08-02T01:35:14;16.50;99.90
25250;DHT22;13201;51.148;13.738;2022-08-02T01:37:52;16.70;99.90
25250;DHT22;13201;51.148;13.738;2022-08-02T01:40:31;16.70;99.90
25250;DHT22;13201;51.148;13.738;2022-08-02T01:42:58;16.80;99.90
25250;DHT22;13201;51.148;13.738;2022-08-02T01:45:29;16.80;99.90
25250;DHT22;13201;51.148;13.738;2022-08-02T01:47:58;16.90;99.90
25250;DHT22;13201;51.148;13.738;2022-08-02T01:50:30;17.10;99.90
25250;DHT22;13201;51.148;13.738;2022-08-02T01:53:00;17.00;99.90
25250;DHT22;13201;51.148;13.738;2022-08-02T01:55:43;17.10;99.90
25250;DHT22;13201;51.148;13.738;2022-08-02T01:58:10;17.40;99.90
25250;DHT22;13201;51.148;13.738;2022-08-02T02:00:40;17.50;99.90
25250;DHT22;13201;51.148;13.738;2022-08-02T02:03:11;17.50;99.90
25250;DHT22;13201;51.148;13.738;2022-08-02T02:05:38;17.60;99.90
25250;DHT22;13201;51.148;13.738;2022-08-02T02:08:05;17.30;99.90
25250;DHT22;13201;51.148;13.738;2022-08-02T02:10:35;17.40;99.90
25250;DHT22;13201;51.148;13.738;2022-08-02T02:13:06;17.30;99.90
25250;DHT22;13201;51.148;13.738;2022-08-02T02:15:33;17.40;99.90
25250;DHT22;13201;51.148;13.738;2022-08-02T02:18:00;17.40;99.90
25250;DHT22;13201;51.148;13.738;2022-08-02T02:20:27;17.30;99.90
25250;DHT22;13201;51.148;13.738;2022-08-02T02:22:53;17.30;99.90
25250;DHT22;13201;51.148;13.738;2022-08-02T02:25:21;17.30;99.90
25250;DHT22;13201;51.148;13.738;2022-08-02T02:27:54;17.00;99.90
25250;DHT22;13201;51.148;13.738;2022-08-02T02:30:23;17.20;99.90
25250;DHT22;13201;51.148;13.738;2022-08-02T02:32:52;17.20;99.90
25250;DHT22;13201;51.148;13.738;2022-08-02T02:35:21;17.40;99.90
25250;DHT22;13201;51.148;13.738;2022-08-02T02:37:48;17.40;99.90
25250;DHT22;13201;51.148;13.738;2022-08-02T02:40:16;17.20;99.90
25250;DHT22;13201;51.148;13.738;2022-08-02T02:42:43;17.40;99.90
25250;DHT22;13201;51.148;13.738;2022-08-02T02:45:10;17.60;99.90
25250;DHT22;13201;51.148;13.738;2022-08-02T02:47:36;17.60;99.90
25250;DHT22;13201;51.148;13.738;2022-08-02T02:50:02;17.70;99.90
25250;DHT22;13201;51.148;13.738;2022-08-02T02:52:28;17.80;99.90
25250;DHT22;13201;51.148;13.738;2022-08-02T02:54:54;17.80;99.90
25250;DHT22;13201;51.148;13.738;2022-08-02T02:57:21;17.80;99.90
25250;DHT22;13201;51.148;13.738;2022-08-02T02:59:47;17.80;99.90
25250;DHT22;13201;51.148;13.738;2022-08-02T03:02:13;17.80;99.90
25250;DHT22;13201;51.148;13.738;2022-08-02T03:04:40;17.60;99.90
25250;DHT22;13201;51.148;13.738;2022-08-02T03:07:06;17.60;99.90
25250;DHT22;13201;51.148;13.738;2022-08-02T03:09:32;17.60;99.90
25250;DHT22;13201;51.148;13.738;2022-08-02T03:11:58;17.60;99.90
25250;DHT22;13201;51.148;13.738;2022-08-02T03:14:24;17.50;99.90
25250;DHT22;13201;51.148;13.738;2022-08-02T03:16:52;17.60;99.90
25250;DHT22;13201;51.148;13.738;2022-08-02T03:19:19;17.50;99.90
25250;DHT22;13201;51.148;13.738;2022-08-02T03:21:47;17.60;99.90
25250;DHT22;13201;51.148;13.738;2022-08-02T03:24:13;17.50;99.90
25250;DHT22;13201;51.148;13.738;2022-08-02T03:26:39;17.20;99.90
25250;DHT22;13201;51.148;13.738;2022-08-02T03:29:05;17.10;99.90
25250;DHT22;13201;51.148;13.738;2022-08-02T03:31:31;17.20;99.90
25250;DHT22;13201;51.148;13.738;2022-08-02T03:33:58;17.30;99.90
25250;DHT22;13201;51.148;13.738;2022-08-02T03:36:29;17.40;99.90
25250;DHT22;13201;51.148;13.738;2022-08-02T03:38:57;17.50;99.90
25250;DHT22;13201;51.148;13.738;2022-08-02T03:41:24;17.60;99.90
25250;DHT22;13201;51.148;13.738;2022-08-02T03:43:50;17.60;99.90
25250;DHT22;13201;51.148;13.738;2022-08-02T03:46:19;17.70;99.90
25250;DHT22;13201;51.148;13.738;2022-08-02T03:48:46;17.60;99.90
25250;DHT22;13201;51.148;13.738;2022-08-02T03:51:14;17.60;99.90
25250;DHT22;13201;51.148;13.738;2022-08-02T03:53:39;17.70;99.90
25250;DHT22;13201;51.148;13.738;2022-08-02T03:56:06;17.60;99.90
25250;DHT22;13201;51.148;13.738;2022-08-02T03:58:32;17.60;99.90
25250;DHT22;13201;51.148;13.738;2022-08-02T04:00:59;17.60;99.90
25250;DHT22;13201;51.148;13.738;2022-08-02T04:03:25;17.60;99.90
25250;DHT22;13201;51.148;13.738;2022-08-02T04:05:51;17.60;99.90
25250;DHT22;13201;51.148;13.738;2022-08-02T04:08:17;17.50;99.90
25250;DHT22;13201;51.148;13.738;2022-08-02T04:10:43;17.50;99.90
25250;DHT22;13201;51.148;13.738;2022-08-02T04:13:31;17.50;99.90
25250;DHT22;13201;51.148;13.738;2022-08-02T04:18:57;17.50;99.90
25250;DHT22;13201;51.148;13.738;2022-08-02T04:21:27;17.70;99.90
25250;DHT22;13201;51.148;13.738;2022-08-02T04:23:54;17.80;99.90
25250;DHT22;13201;51.148;13.738;2022-08-02T04:26:21;18.00;99.90
25250;DHT22;13201;51.148;13.738;2022-08-02T04:28:47;18.00;99.90
25250;DHT22;13201;51.148;13.738;2022-08-02T04:31:15;18.00;99.90
25250;DHT22;13201;51.148;13.738;2022-08-02T04:33:41;18.10;99.90
25250;DHT22;13201;51.148;13.738;2022-08-02T04:36:07;18.10;99.90
25250;DHT22;13201;51.148;13.738;2022-08-02T04:38:35;18.20;99.90
25250;DHT22;13201;51.148;13.738;2022-08-02T04:41:00;18.20;99.90
25250;DHT22;13201;51.148;13.738;2022-08-02T04:43:27;18.30;99.90
25250;DHT22;13201;51.148;13.738;2022-08-02T04:45:53;18.50;99.90
25250;DHT22;13201;51.148;13.738;2022-08-02T04:48:20;18.50;99.90
25250;DHT22;13201;51.148;13.738;2022-08-02T04:50:46;18.50;99.90
25250;DHT22;13201;51.148;13.738;2022-08-02T04:53:12;18.50;99.90
25250;DHT22;13201;51.148;13.738;2022-08-02T04:55:38;18.60;99.90
25250;DHT22;13201;51.148;13.738;2022-08-02T04:58:04;18.60;99.90
25250;DHT22;13201;51.148;13.738;2022-08-02T05:00:30;18.70;99.90
25250;DHT22;13201;51.148;13.738;2022-08-02T05:02:57;18.90;99.90
25250;DHT22;13201;51.148;13.738;2022-08-02T05:05:22;18.80;99.90
25250;DHT22;13201;51.148;13.738;2022-08-02T05:07:48;18.90;99.90
25250;DHT22;13201;51.148;13.738;2022-08-02T05:10:14;18.90;99.90
25250;DHT22;13201;51.148;13.738;2022-08-02T05:12:40;19.00;99.90
25250;DHT22;13201;51.148;13.738;2022-08-02T05:15:07;18.90;99.90
25250;DHT22;13201;51.148;13.738;2022-08-02T05:17:32;18.90;99.90
25250;DHT22;13201;51.148;13.738;2022-08-02T05:19:58;18.80;99.90
25250;DHT22;13201;51.148;13.738;2022-08-02T05:22:24;18.80;99.90
25250;DHT22;13201;51.148;13.738;2022-08-02T05:24:49;18.80;99.90
25250;DHT22;13201;51.148;13.738;2022-08-02T05:27:15;18.80;99.90
25250;DHT22;13201;51.148;13.738;2022-08-02T05:29:41;19.00;99.90
25250;DHT22;13201;51.148;13.738;2022-08-02T05:32:06;19.10;99.90
25250;DHT22;13201;51.148;13.738;2022-08-02T05:34:32;19.00;99.90
25250;DHT22;13201;51.148;13.738;2022-08-02T05:36:57;19.10;99.90
25250;DHT22;13201;51.148;13.738;2022-08-02T05:39:23;19.30;99.90
25250;DHT22;13201;51.148;13.738;2022-08-02T05:41:49;19.20;99.90
25250;DHT22;13201;51.148;13.738;2022-08-02T05:44:14;19.20;99.90
25250;DHT22;13201;51.148;13.738;2022-08-02T05:46:40;19.60;99.90
25250;DHT22;13201;51.148;13.738;2022-08-02T05:49:06;19.40;99.90
25250;DHT22;13201;51.148;13.738;2022-08-02T05:51:42;19.40;99.90
25250;DHT22;13201;51.148;13.738;2022-08-02T05:54:25;19.50;99.90
25250;DHT22;13201;51.148;13.738;2022-08-02T06:02:29;19.70;99.90
25250;DHT22;13201;51.148;13.738;2022-08-02T06:05:18;19.70;99.90
25250;DHT22;13201;51.148;13.738;2022-08-02T06:07:45;19.70;99.90
25250;DHT22;13201;51.148;13.738;2022-08-02T06:10:13;19.70;99.90
25250;DHT22;13201;51.148;13.738;2022-08-02T06:12:50;19.70;99.90
25250;DHT22;13201;51.148;13.738;2022-08-02T06:15:19;19.90;99.90
25250;DHT22;13201;51.148;13.738;2022-08-02T06:17:45;19.90;99.90
25250;DHT22;13201;51.148;13.738;2022-08-02T06:20:11;20.10;99.90
25250;DHT22;13201;51.148;13.738;2022-08-02T06:22:40;20.10;99.90
25250;DHT22;13201;51.148;13.738;2022-08-02T06:25:09;20.10;99.90
25250;DHT22;13201;51.148;13.738;2022-08-02T06:27:35;20.00;99.90
25250;DHT22;13201;51.148;13.738;2022-08-02T06:30:04;20.40;99.90
25250;DHT22;13201;51.148;13.738;2022-08-02T06:32:32;20.50;99.90
25250;DHT22;13201;51.148;13.738;2022-08-02T06:34:58;20.40;99.90
25250;DHT22;13201;51.148;13.738;2022-08-02T06:37:29;20.40;99.90
25250;DHT22;13201;51.148;13.738;2022-08-02T06:42:55;20.70;99.90
25250;DHT22;13201;51.148;13.738;2022-08-02T06:45:22;20.70;99.90
25250;DHT22;13201;51.148;13.738;2022-08-02T06:47:48;20.60;99.90
25250;DHT22;13201;51.148;13.738;2022-08-02T06:50:14;20.60;99.90
25250;DHT22;13201;51.148;13.738;2022-08-02T06:52:40;20.70;99.90
25250;DHT22;13201;51.148;13.738;2022-08-02T06:55:06;20.80;99.90
25250;DHT22;13201;51.148;13.738;2022-08-02T06:57:33;21.00;99.90
25250;DHT22;13201;51.148;13.738;2022-08-02T06:59:58;21.20;99.90
25250;DHT22;13201;51.148;13.738;2022-08-02T07:02:28;21.10;99.90
25250;DHT22;13201;51.148;13.738;2022-08-02T07:04:53;21.30;99.90
25250;DHT22;13201;51.148;13.738;2022-08-02T07:07:19;21.40;99.90
25250;DHT22;13201;51.148;13.738;2022-08-02T07:09:44;21.40;99.90
25250;DHT22;13201;51.148;13.738;2022-08-02T07:12:10;21.50;99.90
25250;DHT22;13201;51.148;13.738;2022-08-02T07:14:36;21.40;99.90
25250;DHT22;13201;51.148;13.738;2022-08-02T07:17:02;21.60;99.90
25250;DHT22;13201;51.148;13.738;2022-08-02T07:19:27;21.60;99.90
25250;DHT22;13201;51.148;13.738;2022-08-02T07:21:53;21.70;99.90
25250;DHT22;13201;51.148;13.738;2022-08-02T07:24:19;21.80;99.90
25250;DHT22;13201;51.148;13.738;2022-08-02T07:26:44;21.90;99.90
25250;DHT22;13201;51.148;13.738;2022-08-02T07:29:10;22.10;99.90
25250;DHT22;13201;51.148;13.738;2022-08-02T07:31:35;22.00;99.90
25250;DHT22;13201;51.148;13.738;2022-08-02T07:34:01;22.10;99.90
25250;DHT22;13201;51.148;13.738;2022-08-02T07:36:27;21.90;99.90
25250;DHT22;13201;51.148;13.738;2022-08-02T07:38:52;22.20;99.90
25250;DHT22;13201;51.148;13.738;2022-08-02T07:41:18;22.30;99.90
25250;DHT22;13201;51.148;13.738;2022-08-02T07:43:44;22.50;99.90
25250;DHT22;13201;51.148;13.738;2022-08-02T07:46:09;22.60;99.90
25250;DHT22;13201;51.148;13.738;2022-08-02T07:48:35;22.70;99.90
25250;DHT22;13201;51.148;13.738;2022-08-02T07:51:00;22.90;99.90
25250;DHT22;13201;51.148;13.738;2022-08-02T07:53:26;23.10;99.90
25250;DHT22;13201;51.148;13.738;2022-08-02T07:55:52;23.10;99.90
25250;DHT22;13201;51.148;13.738;2022-08-02T07:58:17;23.30;99.90
25250;DHT22;13201;51.148;13.738;2022-08-02T08:00:43;23.30;99.90
25250;DHT22;13201;51.148;13.738;2022-08-02T08:03:09;23.30;99.90
25250;DHT22;13201;51.148;13.738;2022-08-02T08:05:35;23.30;99.90
25250;DHT22;13201;51.148;13.738;2022-08-02T08:08:01;23.30;99.90
25250;DHT22;13201;51.148;13.738;2022-08-02T08:10:26;23.30;99.90
25250;DHT22;13201;51.148;13.738;2022-08-02T08:12:52;23.40;99.90
25250;DHT22;13201;51.148;13.738;2022-08-02T08:15:20;23.30;99.90
25250;DHT22;13201;51.148;13.738;2022-08-02T08:17:45;23.40;99.90
25250;DHT22;13201;51.148;13.738;2022-08-02T08:20:11;23.50;99.90
25250;DHT22;13201;51.148;13.738;2022-08-02T08:22:37;23.90;99.90
25250;DHT22;13201;51.148;13.738;2022-08-02T08:25:02;24.10;99.90
25250;DHT22;13201;51.148;13.738;2022-08-02T08:27:28;24.10;99.90
25250;DHT22;13201;51.148;13.738;2022-08-02T08:29:54;24.10;99.90
25250;DHT22;13201;51.148;13.738;2022-08-02T08:32:19;24.20;99.90
25250;DHT22;13201;51.148;13.738;2022-08-02T08:34:45;24.10;99.90
25250;DHT22;13201;51.148;13.738;2022-08-02T08:37:12;24.30;99.90
25250;DHT22;13201;51.148;13.738;2022-08-02T08:39:38;24.30;99.90
25250;DHT22;13201;51.148;13.738;2022-08-02T08:42:07;24.20;99.90
25250;DHT22;13201;51.148;13.738;2022-08-02T08:44:34;24.10;99.90
25250;DHT22;13201;51.148;13.738;2022-08-02T08:47:00;24.30;99.90
25250;DHT22;13201;51.148;13.738;2022-08-02T08:49:31;24.30;99.90
25250;DHT22;13201;51.148;13.738;2022-08-02T08:52:02;24.70;99.90
25250;DHT22;13201;51.148;13.738;2022-08-02T08:54:29;24.60;99.90
25250;DHT22;13201;51.148;13.738;2022-08-02T08:56:55;24.90;99.90
25250;DHT22;13201;51.148;13.738;2022-08-02T08:59:21;25.10;99.90
25250;DHT22;13201;51.148;13.738;2022-08-02T09:01:49;25.10;99.90
25250;DHT22;13201;51.148;13.738;2022-08-02T09:04:15;25.00;99.90
25250;DHT22;13201;51.148;13.738;2022-08-02T09:06:41;25.10;99.90
25250;DHT22;13201;51.148;13.738;2022-08-02T09:09:07;25.40;99.90
25250;DHT22;13201;51.148;13.738;2022-08-02T09:11:33;25.30;99.90
25250;DHT22;13201;51.148;13.738;2022-08-02T09:14:01;25.40;99.90
25250;DHT22;13201;51.148;13.738;2022-08-02T09:16:34;25.50;99.90
25250;DHT22;13201;51.148;13.738;2022-08-02T09:19:24;25.70;99.90
25250;DHT22;13201;51.148;13.738;2022-08-02T09:21:59;25.90;99.90
25250;DHT22;13201;51.148;13.738;2022-08-02T09:24:25;25.60;99.90
25250;DHT22;13201;51.148;13.738;2022-08-02T09:26:51;25.50;99.90
25250;DHT22;13201;51.148;13.738;2022-08-02T09:29:21;25.70;99.90
25250;DHT22;13201;51.148;13.738;2022-08-02T09:31:47;25.70;99.90
25250;DHT22;13201;51.148;13.738;2022-08-02T09:34:14;26.00;99.90
25250;DHT22;13201;51.148;13.738;2022-08-02T09:36:45;26.10;99.90
25250;DHT22;13201;51.148;13.738;2022-08-02T09:39:13;26.10;99.90
25250;DHT22;13201;51.148;13.738;2022-08-02T09:41:44;26.30;99.90
25250;DHT22;13201;51.148;13.738;2022-08-02T09:44:11;26.50;99.90
25250;DHT22;13201;51.148;13.738;2022-08-02T09:46:42;26.70;99.90
25250;DHT22;13201;51.148;13.738;2022-08-02T09:49:09;26.40;99.90
25250;DHT22;13201;51.148;13.738;2022-08-02T09:54:15;26.20;99.90
25250;DHT22;13201;51.148;13.738;2022-08-02T09:56:50;25.80;99.90
25250;DHT22;13201;51.148;13.738;2022-08-02T09:59:17;26.10;99.90
25250;DHT22;13201;51.148;13.738;2022-08-02T10:01:45;26.40;99.90
25250;DHT22;13201;51.148;13.738;2022-08-02T10:04:13;26.90;99.90
25250;DHT22;13201;51.148;13.738;2022-08-02T10:06:40;27.10;99.90
25250;DHT22;13201;51.148;13.738;2022-08-02T10:09:07;27.10;99.90
25250;DHT22;13201;51.148;13.738;2022-08-02T10:11:34;27.10;99.90
25250;DHT22;13201;51.148;13.738;2022-08-02T10:14:02;27.00;99.90
25250;DHT22;13201;51.148;13.738;2022-08-02T10:16:30;26.90;99.90
25250;DHT22;13201;51.148;13.738;2022-08-02T10:18:57;26.90;99.90
25250;DHT22;13201;51.148;13.738;2022-08-02T10:21:43;26.80;99.90
25250;DHT22;13201;51.148;13.738;2022-08-02T10:24:11;27.10;99.90
25250;DHT22;13201;51.148;13.738;2022-08-02T10:26:40;27.30;99.90
25250;DHT22;13201;51.148;13.738;2022-08-02T10:29:08;27.20;99.90
25250;DHT22;13201;51.148;13.738;2022-08-02T10:31:43;27.10;99.90
25250;DHT22;13201;51.148;13.738;2022-08-02T10:34:13;27.20;99.90
25250;DHT22;13201;51.148;13.738;2022-08-02T10:36:41;27.30;99.90
25250;DHT22;13201;51.148;13.738;2022-08-02T10:39:07;27.60;99.90
25250;DHT22;13201;51.148;13.738;2022-08-02T10:41:50;27.70;99.90
25250;DHT22;13201;51.148;13.738;2022-08-02T10:44:25;27.70;99.90
25250;DHT22;13201;51.148;13.738;2022-08-02T10:46:52;28.10;99.90
25250;DHT22;13201;51.148;13.738;2022-08-02T10:52:13;28.30;99.40
25250;DHT22;13201;51.148;13.738;2022-08-02T10:54:43;28.40;99.80
25250;DHT22;13201;51.148;13.738;2022-08-02T10:57:16;28.10;99.50
25250;DHT22;13201;51.148;13.738;2022-08-02T10:59:42;28.10;99.10
25250;DHT22;13201;51.148;13.738;2022-08-02T11:02:08;27.80;98.90
25250;DHT22;13201;51.148;13.738;2022-08-02T11:07:15;28.80;98.60
25250;DHT22;13201;51.148;13.738;2022-08-02T11:09:43;29.30;98.80
25250;DHT22;13201;51.148;13.738;2022-08-02T11:12:10;29.50;98.10
25250;DHT22;13201;51.148;13.738;2022-08-02T11:14:40;29.40;97.50
25250;DHT22;13201;51.148;13.738;2022-08-02T11:17:07;29.20;97.20
25250;DHT22;13201;51.148;13.738;2022-08-02T11:19:33;29.20;97.30
25250;DHT22;13201;51.148;13.738;2022-08-02T11:22:09;29.40;97.50
25250;DHT22;13201;51.148;13.738;2022-08-02T11:24:36;28.90;97.60
25250;DHT22;13201;51.148;13.738;2022-08-02T11:27:04;28.80;97.70
25250;DHT22;13201;51.148;13.738;2022-08-02T11:29:44;28.40;97.90
25250;DHT22;13201;51.148;13.738;2022-08-02T11:32:18;28.90;98.00
25250;DHT22;13201;51.148;13.738;2022-08-02T11:34:46;29.20;97.90
25250;DHT22;13201;51.148;13.738;2022-08-02T11:37:12;29.20;97.10
25250;DHT22;13201;51.148;13.738;2022-08-02T11:39:51;28.60;97.70
25250;DHT22;13201;51.148;13.738;2022-08-02T11:42:17;28.70;97.60
25250;DHT22;13201;51.148;13.738;2022-08-02T11:44:43;29.10;97.40
25250;DHT22;13201;51.148;13.738;2022-08-02T11:47:10;29.60;97.60
25250;DHT22;13201;51.148;13.738;2022-08-02T11:49:37;29.90;96.70
25250;DHT22;13201;51.148;13.738;2022-08-02T11:52:07;29.90;96.70
25250;DHT22;13201;51.148;13.738;2022-08-02T11:54:36;30.10;96.50
25250;DHT22;13201;51.148;13.738;2022-08-02T11:57:18;29.90;96.00
25250;DHT22;13201;51.148;13.738;2022-08-02T11:59:49;30.40;95.80
25250;DHT22;13201;51.148;13.738;2022-08-02T12:02:16;30.70;96.00
25250;DHT22;13201;51.148;13.738;2022-08-02T12:04:42;30.20;95.60
25250;DHT22;13201;51.148;13.738;2022-08-02T12:07:08;29.70;95.50
25250;DHT22;13201;51.148;13.738;2022-08-02T12:09:35;30.10;95.50
25250;DHT22;13201;51.148;13.738;2022-08-02T12:12:02;29.80;94.60
25250;DHT22;13201;51.148;13.738;2022-08-02T12:14:30;29.70;95.40
25250;DHT22;13201;51.148;13.738;2022-08-02T12:16:56;30.10;95.80
25250;DHT22;13201;51.148;13.738;2022-08-02T12:19:54;30.00;95.20
25250;DHT22;13201;51.148;13.738;2022-08-02T12:22:24;30.60;93.90
25250;DHT22;13201;51.148;13.738;2022-08-02T12:24:53;30.70;93.00
25250;DHT22;13201;51.148;13.738;2022-08-02T12:27:35;30.80;93.30
25250;DHT22;13201;51.148;13.738;2022-08-02T12:30:07;31.30;92.90
25250;DHT22;13201;51.148;13.738;2022-08-02T12:32:34;31.00;92.40
25250;DHT22;13201;51.148;13.738;2022-08-02T12:35:00;31.10;92.70
25250;DHT22;13201;51.148;13.738;2022-08-02T12:37:26;30.90;92.20
25250;DHT22;13201;51.148;13.738;2022-08-02T12:39:52;30.90;92.70
25250;DHT22;13201;51.148;13.738;2022-08-02T12:42:18;31.10;92.70
25250;DHT22;13201;51.148;13.738;2022-08-02T12:44:54;31.20;92.10
25250;DHT22;13201;51.148;13.738;2022-08-02T12:47:20;31.40;92.30
25250;DHT22;13201;51.148;13.738;2022-08-02T12:52:31;32.20;91.10
25250;DHT22;13201;51.148;13.738;2022-08-02T12:54:56;32.20;92.00
25250;DHT22;13201;51.148;13.738;2022-08-02T12:57:22;32.50;91.80
25250;DHT22;13201;51.148;13.738;2022-08-02T12:59:51;32.40;90.70
25250;DHT22;13201;51.148;13.738;2022-08-02T13:02:18;31.60;90.40
25250;DHT22;13201;51.148;13.738;2022-08-02T13:04:44;31.60;90.60
25250;DHT22;13201;51.148;13.738;2022-08-02T13:07:10;31.90;90.20
25250;DHT22;13201;51.148;13.738;2022-08-02T13:09:37;32.40;90.60
25250;DHT22;13201;51.148;13.738;2022-08-02T13:12:04;32.40;90.00
25250;DHT22;13201;51.148;13.738;2022-08-02T13:14:30;31.70;90.20
25250;DHT22;13201;51.148;13.738;2022-08-02T13:16:56;31.90;90.60
25250;DHT22;13201;51.148;13.738;2022-08-02T13:19:22;32.00;90.50
25250;DHT22;13201;51.148;13.738;2022-08-02T13:21:47;31.50;90.60
25250;DHT22;13201;51.148;13.738;2022-08-02T13:24:14;32.20;90.50
25250;DHT22;13201;51.148;13.738;2022-08-02T13:26:41;31.90;90.70
25250;DHT22;13201;51.148;13.738;2022-08-02T13:29:08;32.10;90.00
25250;DHT22;13201;51.148;13.738;2022-08-02T13:31:34;32.70;89.00
25250;DHT22;13201;51.148;13.738;2022-08-02T13:34:06;32.40;87.70
25250;DHT22;13201;51.148;13.738;2022-08-02T13:36:33;32.10;87.30
25250;DHT22;13201;51.148;13.738;2022-08-02T13:39:00;32.30;86.80
25250;DHT22;13201;51.148;13.738;2022-08-02T13:41:26;32.70;87.70
25250;DHT22;13201;51.148;13.738;2022-08-02T13:43:51;32.90;87.00
25250;DHT22;13201;51.148;13.738;2022-08-02T13:46:17;32.90;86.80
25250;DHT22;13201;51.148;13.738;2022-08-02T13:48:43;33.30;86.70
25250;DHT22;13201;51.148;13.738;2022-08-02T13:51:08;33.20;86.00
25250;DHT22;13201;51.148;13.738;2022-08-02T13:53:39;32.60;86.40
25250;DHT22;13201;51.148;13.738;2022-08-02T13:56:05;32.80;86.00
25250;DHT22;13201;51.148;13.738;2022-08-02T13:58:31;32.80;85.40
25250;DHT22;13201;51.148;13.738;2022-08-02T14:00:57;32.90;84.60
25250;DHT22;13201;51.148;13.738;2022-08-02T14:03:22;32.70;84.20
25250;DHT22;13201;51.148;13.738;2022-08-02T14:05:48;33.20;84.90
25250;DHT22;13201;51.148;13.738;2022-08-02T14:08:18;33.60;83.30
25250;DHT22;13201;51.148;13.738;2022-08-02T14:10:46;34.00;84.40
25250;DHT22;13201;51.148;13.738;2022-08-02T14:13:11;34.10;84.00
25250;DHT22;13201;51.148;13.738;2022-08-02T14:15:37;33.80;83.00
25250;DHT22;13201;51.148;13.738;2022-08-02T14:18:03;34.40;82.90
25250;DHT22;13201;51.148;13.738;2022-08-02T14:20:28;35.20;82.10
25250;DHT22;13201;51.148;13.738;2022-08-02T14:22:54;35.10;80.70
25250;DHT22;13201;51.148;13.738;2022-08-02T14:25:20;34.80;81.00
25250;DHT22;13201;51.148;13.738;2022-08-02T14:27:45;34.50;80.20
25250;DHT22;13201;51.148;13.738;2022-08-02T14:30:11;33.80;79.80
25250;DHT22;13201;51.148;13.738;2022-08-02T14:32:37;34.70;80.00
25250;DHT22;13201;51.148;13.738;2022-08-02T14:35:03;34.90;79.20
25250;DHT22;13201;51.148;13.738;2022-08-02T14:37:29;35.40;78.30
25250;DHT22;13201;51.148;13.738;2022-08-02T14:39:54;34.90;78.00
25250;DHT22;13201;51.148;13.738;2022-08-02T14:42:20;35.30;77.90
25250;DHT22;13201;51.148;13.738;2022-08-02T14:44:45;35.50;77.60
25250;DHT22;13201;51.148;13.738;2022-08-02T14:47:11;36.20;76.60
25250;DHT22;13201;51.148;13.738;2022-08-02T14:49:37;36.00;75.40
25250;DHT22;13201;51.148;13.738;2022-08-02T14:52:02;35.80;75.50
25250;DHT22;13201;51.148;13.738;2022-08-02T14:54:28;35.20;75.00
25250;DHT22;13201;51.148;13.738;2022-08-02T14:56:56;35.50;75.70
25250;DHT22;13201;51.148;13.738;2022-08-02T14:59:22;34.30;74.80
25250;DHT22;13201;51.148;13.738;2022-08-02T15:01:48;34.20;76.00
25250;DHT22;13201;51.148;13.738;2022-08-02T15:04:14;34.40;76.10
25250;DHT22;13201;51.148;13.738;2022-08-02T15:06:39;34.30;75.60
25250;DHT22;13201;51.148;13.738;2022-08-02T15:09:05;34.70;75.60
25250;DHT22;13201;51.148;13.738;2022-08-02T15:11:30;34.70;75.80
25250;DHT22;13201;51.148;13.738;2022-08-02T15:13:57;35.30;75.50
25250;DHT22;13201;51.148;13.738;2022-08-02T15:16:24;35.50;74.10
25250;DHT22;13201;51.148;13.738;2022-08-02T15:18:50;36.10;74.00
25250;DHT22;13201;51.148;13.738;2022-08-02T15:21:15;36.10;73.90
25250;DHT22;13201;51.148;13.738;2022-08-02T15:23:41;35.50;72.90
25250;DHT22;13201;51.148;13.738;2022-08-02T15:26:07;34.40;73.80
25250;DHT22;13201;51.148;13.738;2022-08-02T15:28:33;34.30;74.00
25250;DHT22;13201;51.148;13.738;2022-08-02T15:30:58;33.90;74.60
25250;DHT22;13201;51.148;13.738;2022-08-02T15:33:25;33.90;74.30
25250;DHT22;13201;51.148;13.738;2022-08-02T15:35:50;33.70;74.70
25250;DHT22;13201;51.148;13.738;2022-08-02T15:38:16;33.50;75.00
25250;DHT22;13201;51.148;13.738;2022-08-02T15:40:42;33.30;75.00
25250;DHT22;13201;51.148;13.738;2022-08-02T15:43:10;33.50;75.20
25250;DHT22;13201;51.148;13.738;2022-08-02T15:45:36;33.50;75.20
25250;DHT22;13201;51.148;13.738;2022-08-02T15:48:03;32.90;75.30
25250;DHT22;13201;51.148;13.738;2022-08-02T15:50:28;32.30;75.70
25250;DHT22;13201;51.148;13.738;2022-08-02T15:52:54;33.10;76.00
25250;DHT22;13201;51.148;13.738;2022-08-02T15:55:20;33.30;75.80
25250;DHT22;13201;51.148;13.738;2022-08-02T15:57:45;33.30;75.70
25250;DHT22;13201;51.148;13.738;2022-08-02T16:00:12;33.60;75.60
25250;DHT22;13201;51.148;13.738;2022-08-02T16:02:38;33.60;76.30